ADDS METAR Data INFO
IDs: Format: Raw Decoded Include TAF

Data at: 2223 UTC 22 Aug 2017

KLCI 222156Z AUTO 20008G19KT 10SM CLR 29/21 A2973 RMK AO2 SLP078 T02890211
KLCI 222056Z AUTO 20012G17KT 10SM SCT060 31/21 A2975 RMK AO2 SLP083 T03060211 56034
KLCI 221956Z AUTO 20011G17KT 10SM FEW045 30/21 A2976 RMK AO2 SLP087 T03000206
KLCI 221856Z AUTO 19009KT 150V210 10SM FEW045 30/21 A2981 RMK AO2 SLP103 T03000206
KLCI 221756Z AUTO 22010G16KT 10SM FEW039 30/21 A2985 RMK AO2 SLP117 T03000206 10300 20189 56031
KLCI 221656Z AUTO 22012G17KT 10SM FEW034 29/20 A2988 RMK AO2 SLP127 T02890200
KLCI 221556Z AUTO 24006KT 9SM CLR 28/21 A2991 RMK AO2 SLP137 T02780211
KLCI 221456Z AUTO 00000KT 8SM CLR 26/21 A2994 RMK AO2 SLP149 T02560206 58020
KLCI 221356Z AUTO 25005KT 10SM CLR 24/19 A2997 RMK AO2 SLP158 T02390194
KLCI 221256Z AUTO 24003KT 10SM CLR 22/19 A2999 RMK AO2 SLP166 T02170189
KLCI 221156Z AUTO 00000KT 10SM CLR 19/18 A3001 RMK AO2 SLP172 T01890178 10189 20161 58002
KLCI 221056Z AUTO 00000KT 8SM CLR 17/16 A3002 RMK AO2 SLP175 T01720161
KLCI 220956Z AUTO 21003KT 8SM CLR 16/16 A3001 RMK AO2 SLP174 T01610156
KLCI 220856Z AUTO 24004KT 8SM CLR 17/16 A3001 RMK AO2 SLP173 T01670161 56013
KLCI 220756Z AUTO 00000KT 10SM CLR 17/16 A3002 RMK AO2 SLP174 T01670161
KLCI 220656Z AUTO 00000KT 10SM CLR 18/17 A3003 RMK AO2 SLP179 T01780167
KLCI 220556Z AUTO 00000KT 10SM CLR 18/17 A3005 RMK AO2 SLP185 T01830167 10228 20178 58001
KLCI 220456Z AUTO 00000KT 10SM CLR 19/16 A3006 RMK AO2 SLP190 T01890161
KLCI 220356Z AUTO 25005KT 10SM CLR 21/16 A3005 RMK AO2 SLP186 T02060161 402830144
KLCI 220256Z AUTO 26005KT 10SM CLR 22/16 A3005 RMK AO2 SLP186 T02170156 58004
KLCI 220156Z AUTO 25006KT 10SM CLR 21/16 A3006 RMK AO2 SLP190 T02110161
KLCI 220056Z AUTO 26003KT 10SM CLR 22/17 A3007 RMK AO2 SLP193 T02220167
KLCI 212356Z AUTO 22003KT 10SM CLR 23/17 A3006 RMK AO2 SLP193 T02330172 10283 20233 55002
KLCI 212256Z AUTO 24005KT 10SM CLR 26/18 A3006 RMK AO2 SLP191 T02560178
KLCI 212156Z AUTO 23007KT 10SM CLR 27/17 A3006 RMK AO2 SLP191 T02720167
KLCI 212056Z AUTO 24011KT 10SM CLR 28/16 A3007 RMK AO2 SLP193 T02780161 56010
KLCI 211956Z AUTO 23010KT 10SM CLR 28/17 A3008 RMK AO2 SLP195 T02830172
KLCI 211856Z AUTO 26005KT 10SM CLR 27/18 A3008 RMK AO2 SLP198 T02720178
KLCI 211756Z AUTO 24008KT 10SM FEW045 28/17 A3010 RMK AO2 SLP203 T02780172 10283 20183 56017
KLCI 211656Z AUTO 23010KT 10SM SCT043 BKN060 27/18 A3011 RMK AO2 SLP209 T02720183
KLCI 211456Z AUTO 24006KT 10SM CLR 24/16 A3015 RMK AO2 SLP221 T02440161 56006
KLCI 211356Z AUTO 23006KT 10SM CLR 23/16 A3015 RMK AO2 SLP222 T02330161
KLCI 211256Z AUTO 25007KT 10SM CLR 21/16 A3016 RMK AO2 SLP226 T02060156
KLCI 211156Z AUTO 25004KT 10SM CLR 18/16 A3017 RMK AO2 SLP229 T01780156 10178 20144 51007
KLCI 211056Z AUTO 00000KT 10SM CLR 16/15 A3017 RMK AO2 SLP228 T01610150